Troy Municipal Airport
KTOI : now visible

Airfield :











YOU CAN JOIN US ON...

 
LOGIN :

Register | Disclaimer

   EN    FR    IT 

 









Legend :    VFR   Marginal VFR   IFR   Intensive IFR   Very Intensive IFR
Visi :
Ceiling :
>= 8 km
>= 3000ft
5 to 8 km
1000 to 3000 ft
1500m to 5 km
500 to 1000 ft
800 to 1500m
200 to 500 ft
< 800m
< 200 ft
Symbols :   Thunderstorms  Fog  Heavy snow  Heavy precipitations  Wind > 20 kt






- Airport Elevation : 398 ft


KTOI - Troy Municipal

CURRENT METAR :
  • 122053Z AUTO 31008KT 1 1/4SM +TSRA BKN041 BKN055 OVC075 23/19 A2984 RMK AO2 PK WND 29037/2039 LTG DSNT ALQDS RAB18 TSB00 PRESFR SLP100 P0050 60050 T02330189 55013

EXPIRED METARs :
  • 122036Z AUTO 31022G29KT 1 3/4SM -TSRA BKN033 BKN046 OVC060 26/20 A2988 RMK AO2 PK WND 32029/2033 LTG DSNT W-NE RAB18 TSB00 PRESRR P0020 T02610200
  • 122027Z AUTO 30013G22KT 260V330 1 1/4SM +TSRA FEW027 BKN036 OVC050 27/22 A2984 RMK AO2 LTG DSNT W-NE RAB18 TSB00 P0016 T02670217
  • 121853Z AUTO 05004KT 10SM BKN038 BKN047 30/24 A2985 RMK AO2 LTG DSNT SE SLP102 T03000239
  • 121824Z AUTO 34006KT 10SM VCTS FEW029 SCT042 31/23 A2987 RMK AO2 LTG DSNT SE T03060233
  • 121816Z AUTO 32009KT 10SM FEW027 SCT040 31/23 A2987 RMK AO2 LTG DSNT N T03110233
  • 121753Z AUTO 29011G16KT 10SM VCTS FEW018 SCT025 BKN031 31/23 A2988 RMK AO2 LTG DSNT N-SE TSE02 SLP111 60021 T03110233 10317 20250 58008

TAF KTOI
Valid from the 12 at 18:00 until the 13 at 18:00 UTC


121724Z 1218/1318 31007KT P6SM VCTS BKN050CB
TEMPO 1219/1222 4SM TSRA BR OVC025CB
FM122200 30010KT 6SM SHRA BR VCTS SCT040CB BKN180
FM130300 VRB04KT P6SM SCT250
KZTL FIR / North America



MET'MAP, your aeronautical weather chart ! - Copyright ORBIFLY December 2007 - Disclaimer

ORBIFLY MET'MAP TEAM :

Programming & Development : Alexandra Zaïnal
Concept & original design : Baudouin d'Aumeries
Assistance for programming : Marc-Olivier Méhu
Technical & hardware support : Manuel Goepfert

Contact : metmap@orbifly.com




SOURCES & CREDITS :

   NOAA       Earth
Advisory